Time,TemperatureF,DewpointF,PressureIn,WindDirection,WindDirectionDegrees,WindSpeedMPH,WindSpeedGustMPH,Humidity,HourlyPrecipIn,Conditions,Clouds,dailyrainin,SoftwareType,DateUTC
2013-11-21 00:13:00,65.8,65.0,29.89,SSW,205,1.0,6.0,96,0.00,,,0.00,weatherlink.com 1.10,2013-11-21 06:13:00,
2013-11-21 00:28:00,65.8,65.0,29.89,South,181,5.0,8.0,96,0.00,,,0.00,weatherlink.com 1.10,2013-11-21 06:28:00,
2013-11-21 00:43:00,65.9,65.0,29.89,SW,224,4.0,7.0,96,0.00,,,0.00,weatherlink.com 1.10,2013-11-21 06:43:00,
2013-11-21 00:58:00,66.0,65.0,29.89,SSE,166,3.0,5.0,96,0.00,,,0.00,weatherlink.com 1.10,2013-11-21 06:58:00,
2013-11-21 01:13:00,66.0,65.0,29.89,SSW,211,2.0,196.0,96,0.00,,,0.00,weatherlink.com 1.10,2013-11-21 07:13:00,
2013-11-21 01:28:00,66.2,65.0,29.89,SSE,149,3.0,7.0,96,0.00,,,0.00,weatherlink.com 1.10,2013-11-21 07:28:00,
2013-11-21 01:43:00,66.3,65.0,29.89,South,181,6.0,10.0,96,0.00,,,0.00,weatherlink.com 1.10,2013-11-21 07:43:00,
2013-11-21 01:58:00,66.4,66.0,29.89,SSW,205,1.0,8.0,97,0.00,,,0.00,weatherlink.com 1.10,2013-11-21 07:58:00,
2013-11-21 02:13:00,66.6,66.0,29.89,SW,214,1.0,9.0,97,0.00,,,0.00,weatherlink.com 1.10,2013-11-21 08:13:00,
2013-11-21 02:28:00,66.7,66.0,29.89,SW,221,2.0,5.0,97,0.00,,,0.00,weatherlink.com 1.10,2013-11-21 08:28:00,
2013-11-21 02:43:00,66.7,66.0,29.89,South,174,2.0,7.0,97,0.00,,,0.00,weatherlink.com 1.10,2013-11-21 08:43:00,
2013-11-21 02:58:00,66.8,66.0,29.88,South,181,2.0,6.0,97,0.00,,,0.00,weatherlink.com 1.10,2013-11-21 08:58:00,
2013-11-21 03:13:00,66.9,66.0,29.88,SSE,167,5.0,5.0,97,0.00,,,0.00,weatherlink.com 1.10,2013-11-21 09:13:00,
2013-11-21 03:28:00,67.0,66.0,29.88,SW,224,2.0,6.0,97,0.00,,,0.00,weatherlink.com 1.10,2013-11-21 09:28:00,
2013-11-21 03:43:00,67.2,66.0,29.88,SSW,207,4.0,9.0,97,0.00,,,0.00,weatherlink.com 1.10,2013-11-21 09:43:00,
2013-11-21 03:58:00,67.4,67.0,29.88,SSE,155,4.0,9.0,97,0.00,,,0.00,weatherlink.com 1.10,2013-11-21 09:58:00,
2013-11-21 04:13:00,67.4,67.0,29.88,South,186,4.0,6.0,97,0.00,,,0.00,weatherlink.com 1.10,2013-11-21 10:13:00,
2013-11-21 04:28:00,67.4,67.0,29.88,SW,220,4.0,6.0,97,0.00,,,0.00,weatherlink.com 1.10,2013-11-21 10:28:00,
2013-11-21 04:43:00,67.3,67.0,29.88,SW,228,2.0,7.0,97,0.00,,,0.00,weatherlink.com 1.10,2013-11-21 10:43:00,
2013-11-21 04:58:00,67.2,66.0,29.88,SE,138,1.0,4.0,97,0.00,,,0.00,weatherlink.com 1.10,2013-11-21 10:58:00,
2013-11-21 05:13:00,67.2,66.0,29.88,SSE,160,3.0,5.0,97,0.00,,,0.00,weatherlink.com 1.10,2013-11-21 11:13:00,
2013-11-21 05:28:00,67.3,67.0,29.88,SW,215,2.0,4.0,97,0.00,,,0.00,weatherlink.com 1.10,2013-11-21 11:28:00,
2013-11-21 05:43:00,67.4,67.0,29.88,South,174,5.0,6.0,97,0.00,,,0.00,weatherlink.com 1.10,2013-11-21 11:43:00,
2013-11-21 05:58:00,67.4,67.0,29.88,SW,214,4.0,7.0,97,0.00,,,0.00,weatherlink.com 1.10,2013-11-21 11:58:00,
2013-11-21 06:13:00,67.5,67.0,29.89,SW,219,3.0,5.0,97,0.00,,,0.00,weatherlink.com 1.10,2013-11-21 12:13:00,
2013-11-21 06:28:00,67.4,67.0,29.89,WSW,240,4.0,6.0,97,0.00,,,0.00,weatherlink.com 1.10,2013-11-21 12:28:00,
2013-11-21 06:43:00,67.4,67.0,29.89,South,190,3.0,7.0,97,0.00,,,0.00,weatherlink.com 1.10,2013-11-21 12:43:00,
2013-11-21 06:58:00,67.4,67.0,29.90,SE,141,4.0,9.0,97,0.00,,,0.00,weatherlink.com 1.10,2013-11-21 12:58:00,
2013-11-21 07:13:00,67.4,66.0,29.90,SSE,147,3.0,8.0,96,0.00,,,0.00,weatherlink.com 1.10,2013-11-21 13:13:00,
2013-11-21 07:28:00,67.5,66.0,29.91,SSE,165,1.0,6.0,96,0.00,,,0.00,weatherlink.com 1.10,2013-11-21 13:28:00,
2013-11-21 07:43:00,67.6,67.0,29.91,SSW,193,2.0,7.0,96,0.00,,,0.00,weatherlink.com 1.10,2013-11-21 13:43:00,
2013-11-21 07:58:00,67.8,67.0,29.92,SSE,157,2.0,7.0,96,0.00,,,0.00,weatherlink.com 1.10,2013-11-21 13:58:00,
2013-11-21 08:13:00,67.9,67.0,29.92,SSW,203,2.0,6.0,96,0.00,,,0.00,weatherlink.com 1.10,2013-11-21 14:13:00,
2013-11-21 08:28:00,68.1,67.0,29.93,South,177,5.0,7.0,96,0.00,,,0.00,weatherlink.com 1.10,2013-11-21 14:28:00,
2013-11-21 08:43:00,68.6,67.0,29.93,South,179,4.0,8.0,95,0.00,,,0.00,weatherlink.com 1.10,2013-11-21 14:43:00,
2013-11-21 08:58:00,69.1,67.0,29.94,SSW,200,5.0,8.0,94,0.00,,,0.00,weatherlink.com 1.10,2013-11-21 14:58:00,
2013-11-21 09:13:00,69.7,68.0,29.94,South,191,3.0,10.0,94,0.00,,,0.00,weatherlink.com 1.10,2013-11-21 15:13:00,
2013-11-21 09:28:00,70.1,67.0,29.94,SSW,203,6.0,10.0,91,0.00,,,0.00,weatherlink.com 1.10,2013-11-21 15:28:00,
2013-11-21 09:44:00,70.3,68.0,29.95,SSW,201,2.0,11.0,91,0.00,,,0.00,weatherlink.com 1.10,2013-11-21 15:44:00,
2013-11-21 09:59:00,71.1,68.0,29.94,SW,226,5.0,12.0,89,0.00,,,0.00,weatherlink.com 1.10,2013-11-21 15:59:00,
2013-11-21 10:14:00,71.4,68.0,29.95,SSW,211,2.0,9.0,89,0.00,,,0.00,weatherlink.com 1.10,2013-11-21 16:14:00,
2013-11-21 10:29:00,71.7,68.0,29.95,SSW,197,5.0,12.0,88,0.00,,,0.00,weatherlink.com 1.10,2013-11-21 16:29:00,
2013-11-21 10:44:00,72.2,68.0,29.95,SE,146,4.0,12.0,87,0.00,,,0.00,weatherlink.com 1.10,2013-11-21 16:44:00,
2013-11-21 10:59:00,72.2,68.0,29.95,SSE,147,3.0,11.0,86,0.00,,,0.00,weatherlink.com 1.10,2013-11-21 16:59:00,
2013-11-21 11:14:00,71.6,68.0,29.94,SW,222,5.0,10.0,88,0.00,,,0.00,weatherlink.com 1.10,2013-11-21 17:14:00,
2013-11-21 11:29:00,71.7,68.0,29.94,SSW,207,5.0,13.0,89,0.00,,,0.00,weatherlink.com 1.10,2013-11-21 17:29:00,
2013-11-21 11:44:00,72.3,68.0,29.93,SSW,209,2.0,11.0,87,0.00,,,0.00,weatherlink.com 1.10,2013-11-21 17:44:00,
2013-11-21 11:59:00,72.0,68.0,29.92,SW,215,4.0,11.0,87,0.00,,,0.00,weatherlink.com 1.10,2013-11-21 17:59:00,
2013-11-21 12:14:00,72.0,69.0,29.92,SW,222,2.0,9.0,90,0.00,,,0.00,weatherlink.com 1.10,2013-11-21 18:14:00,
2013-11-21 12:29:00,73.2,69.0,29.91,SW,214,4.0,10.0,86,0.01,,,0.01,weatherlink.com 1.10,2013-11-21 18:29:00,
2013-11-21 12:44:00,73.3,69.0,29.91,SSW,204,4.0,14.0,85,0.01,,,0.01,weatherlink.com 1.10,2013-11-21 18:44:00,
2013-11-21 12:59:00,73.7,69.0,29.90,SSE,156,5.0,11.0,84,0.01,,,0.01,weatherlink.com 1.10,2013-11-21 18:59:00,
2013-11-21 13:14:00,73.8,68.0,29.90,SSW,210,6.0,13.0,83,0.01,,,0.01,weatherlink.com 1.10,2013-11-21 19:14:00,
2013-11-21 13:29:00,74.0,69.0,29.90,SE,141,5.0,15.0,83,0.00,,,0.01,weatherlink.com 1.10,2013-11-21 19:29:00,
2013-11-21 13:44:00,74.5,69.0,29.89,SSW,204,4.0,11.0,82,0.00,,,0.01,weatherlink.com 1.10,2013-11-21 19:44:00,
2013-11-21 13:59:00,74.0,69.0,29.89,SSW,200,9.0,13.0,83,0.00,,,0.01,weatherlink.com 1.10,2013-11-21 19:59:00,
2013-11-21 14:14:00,74.2,68.0,29.89,SSW,198,4.0,9.0,82,0.00,,,0.01,weatherlink.com 1.10,2013-11-21 20:14:00,
2013-11-21 14:29:00,74.3,69.0,29.89,SW,226,2.0,9.0,82,0.00,,,0.01,weatherlink.com 1.10,2013-11-21 20:29:00,
2013-11-21 14:44:00,74.4,68.0,29.89,SE,143,2.0,8.0,81,0.00,,,0.01,weatherlink.com 1.10,2013-11-21 20:44:00,
2013-11-21 14:59:00,73.2,69.0,29.89,WSW,248,3.0,7.0,86,0.00,,,0.01,weatherlink.com 1.10,2013-11-21 20:59:00,
2013-11-21 15:14:00,73.3,68.0,29.89,SSW,195,2.0,7.0,84,0.00,,,0.01,weatherlink.com 1.10,2013-11-21 21:14:00,
2013-11-21 15:29:00,73.5,68.0,29.89,WSW,238,3.0,7.0,83,0.00,,,0.01,weatherlink.com 1.10,2013-11-21 21:29:00,
2013-11-21 15:44:00,74.2,68.0,29.89,SSW,203,3.0,8.0,82,0.00,,,0.01,weatherlink.com 1.10,2013-11-21 21:44:00,
2013-11-21 15:59:00,73.7,68.0,29.90,South,186,3.0,8.0,82,0.00,,,0.01,weatherlink.com 1.10,2013-11-21 21:59:00,
2013-11-21 16:14:00,73.1,68.0,29.90,SSW,203,2.0,8.0,83,0.00,,,0.01,weatherlink.com 1.10,2013-11-21 22:14:00,
2013-11-21 16:29:00,73.6,68.0,29.90,SW,225,2.0,8.0,83,0.00,,,0.01,weatherlink.com 1.10,2013-11-21 22:29:00,
2013-11-21 16:44:00,73.4,68.0,29.89,SW,218,4.0,5.0,83,0.00,,,0.01,weatherlink.com 1.10,2013-11-21 22:44:00,
2013-11-21 16:59:00,73.1,68.0,29.90,SE,129,3.0,52.0,83,0.00,,,0.01,weatherlink.com 1.10,2013-11-21 22:59:00,
2013-11-21 17:14:00,72.4,68.0,29.90,SSE,148,0.0,73.0,85,0.00,,,0.01,weatherlink.com 1.10,2013-11-21 23:14:00,
2013-11-21 17:29:00,71.6,67.0,29.90,SW,215,1.0,3.0,86,0.00,,,0.01,weatherlink.com 1.10,2013-11-21 23:29:00,
2013-11-21 17:44:00,70.6,67.0,29.91,SSW,204,0.0,3.0,87,0.00,,,0.01,weatherlink.com 1.10,2013-11-21 23:44:00,
2013-11-21 17:59:00,69.6,66.0,29.92,SE,141,0.0,0.0,88,0.00,,,0.01,weatherlink.com 1.10,2013-11-21 23:59:00,
2013-11-21 18:14:00,68.0,65.0,29.92,SE,141,0.0,0.0,90,0.00,,,0.01,weatherlink.com 1.10,2013-11-22 00:14:00,
2013-11-21 18:29:00,66.7,64.0,29.93,SE,141,1.0,126.0,91,0.00,,,0.01,weatherlink.com 1.10,2013-11-22 00:29:00,
2013-11-21 18:44:00,66.0,64.0,29.94,SE,141,0.0,89.0,93,0.00,,,0.01,weatherlink.com 1.10,2013-11-22 00:44:00,
2013-11-21 18:59:00,65.1,63.0,29.94,SE,141,0.0,1.0,93,0.00,,,0.01,weatherlink.com 1.10,2013-11-22 00:59:00,
2013-11-21 19:14:00,64.3,62.0,29.94,SE,141,0.0,0.0,93,0.00,,,0.01,weatherlink.com 1.10,2013-11-22 01:14:00,
2013-11-21 19:29:00,63.8,62.0,29.94,SE,141,0.0,0.0,94,0.00,,,0.01,weatherlink.com 1.10,2013-11-22 01:29:00,
2013-11-21 19:44:00,63.4,62.0,29.95,NW,311,0.0,58.0,95,0.00,,,0.01,weatherlink.com 1.10,2013-11-22 01:44:00,
2013-11-21 19:59:00,62.5,61.0,29.95,NW,311,0.0,0.0,94,0.00,,,0.01,weatherlink.com 1.10,2013-11-22 01:59:00,
2013-11-21 20:15:00,62.2,61.0,29.95,NW,310,0.0,0.0,95,0.00,,,0.01,weatherlink.com 1.10,2013-11-22 02:15:00,
2013-11-21 20:30:00,62.0,61.0,29.96,NW,311,0.0,0.0,95,0.00,,,0.01,weatherlink.com 1.10,2013-11-22 02:30:00,
2013-11-21 20:45:00,61.3,60.0,29.96,NW,311,0.0,0.0,95,0.00,,,0.01,weatherlink.com 1.10,2013-11-22 02:45:00,
2013-11-21 21:00:00,60.8,59.0,29.96,NW,311,0.0,0.0,95,0.00,,,0.01,weatherlink.com 1.10,2013-11-22 03:00:00,
2013-11-21 21:15:00,60.9,60.0,29.97,NW,311,0.0,0.0,96,0.00,,,0.01,weatherlink.com 1.10,2013-11-22 03:15:00,
2013-11-21 21:30:00,60.7,60.0,29.97,NW,311,0.0,0.0,96,0.00,,,0.01,weatherlink.com 1.10,2013-11-22 03:30:00,
2013-11-21 21:45:00,60.8,60.0,29.98,NW,310,0.0,0.0,96,0.00,,,0.01,weatherlink.com 1.10,2013-11-22 03:45:00,
2013-11-21 22:00:00,61.4,60.0,29.99,SSW,207,0.0,1.0,96,0.00,,,0.01,weatherlink.com 1.10,2013-11-22 04:00:00,
2013-11-21 22:15:00,61.8,61.0,30.00,SSW,207,0.0,0.0,96,0.00,,,0.01,weatherlink.com 1.10,2013-11-22 04:15:00,
2013-11-21 22:30:00,62.5,61.0,30.00,SSW,207,0.0,27.0,96,0.00,,,0.01,weatherlink.com 1.10,2013-11-22 04:30:00,
2013-11-21 22:45:00,63.0,62.0,30.00,SSW,204,0.0,16.0,96,0.00,,,0.01,weatherlink.com 1.10,2013-11-22 04:45:00,
2013-11-21 23:00:00,63.6,63.0,30.01,SW,232,0.0,1.0,96,0.00,,,0.01,weatherlink.com 1.10,2013-11-22 05:00:00,
2013-11-21 23:15:00,63.9,63.0,30.01,SW,232,0.0,100.0,96,0.00,,,0.01,weatherlink.com 1.10,2013-11-22 05:15:00,
2013-11-21 23:30:00,64.5,64.0,30.01,West,269,0.0,153.0,97,0.00,,,0.01,weatherlink.com 1.10,2013-11-22 05:30:00,
2013-11-21 23:45:00,65.0,64.0,30.01,NNW,346,0.0,131.0,96,0.00,,,0.01,weatherlink.com 1.10,2013-11-22 05:45:00,